sensor_id;sensor_type;location;lat;lon;timestamp;temperature;humidity
21568;DHT22;10944;42.590;12.630;2023-03-13T00:01:27;11.10;95.60
21568;DHT22;10944;42.590;12.630;2023-03-13T00:03:53;11.20;95.20
21568;DHT22;10944;42.590;12.630;2023-03-13T00:08:46;11.10;95.40
21568;DHT22;10944;42.590;12.630;2023-03-13T00:11:13;10.90;96.00
21568;DHT22;10944;42.590;12.630;2023-03-13T00:13:40;10.50;96.10
21568;DHT22;10944;42.590;12.630;2023-03-13T00:16:11;10.30;96.60
21568;DHT22;10944;42.590;12.630;2023-03-13T00:18:37;10.10;96.70
21568;DHT22;10944;42.590;12.630;2023-03-13T00:21:08;10.00;97.40
21568;DHT22;10944;42.590;12.630;2023-03-13T00:23:35;9.70;98.20
21568;DHT22;10944;42.590;12.630;2023-03-13T00:26:05;9.60;98.70
21568;DHT22;10944;42.590;12.630;2023-03-13T00:28:32;9.50;99.10
21568;DHT22;10944;42.590;12.630;2023-03-13T00:31:09;9.40;99.30
21568;DHT22;10944;42.590;12.630;2023-03-13T00:33:43;9.40;99.30
21568;DHT22;10944;42.590;12.630;2023-03-13T00:36:17;9.50;99.30
21568;DHT22;10944;42.590;12.630;2023-03-13T00:38:44;9.60;99.00
21568;DHT22;10944;42.590;12.630;2023-03-13T00:41:12;9.60;98.80
21568;DHT22;10944;42.590;12.630;2023-03-13T00:43:39;9.80;98.60
21568;DHT22;10944;42.590;12.630;2023-03-13T00:46:06;10.20;97.40
21568;DHT22;10944;42.590;12.630;2023-03-13T00:48:32;10.40;97.20
21568;DHT22;10944;42.590;12.630;2023-03-13T00:50:58;10.50;96.60
21568;DHT22;10944;42.590;12.630;2023-03-13T00:53:24;10.50;97.40
21568;DHT22;10944;42.590;12.630;2023-03-13T00:56:03;10.30;97.40
21568;DHT22;10944;42.590;12.630;2023-03-13T00:58:31;10.30;96.70
21568;DHT22;10944;42.590;12.630;2023-03-13T01:01:13;10.50;96.70
21568;DHT22;10944;42.590;12.630;2023-03-13T01:03:40;10.50;97.20
21568;DHT22;10944;42.590;12.630;2023-03-13T01:06:10;10.30;97.30
21568;DHT22;10944;42.590;12.630;2023-03-13T01:08:37;10.10;97.70
21568;DHT22;10944;42.590;12.630;2023-03-13T01:11:15;9.90;98.40
21568;DHT22;10944;42.590;12.630;2023-03-13T01:13:41;9.70;98.60
21568;DHT22;10944;42.590;12.630;2023-03-13T01:16:08;9.60;98.90
21568;DHT22;10944;42.590;12.630;2023-03-13T01:18:35;9.60;99.30
21568;DHT22;10944;42.590;12.630;2023-03-13T01:21:01;9.50;99.40
21568;DHT22;10944;42.590;12.630;2023-03-13T01:23:27;9.40;99.40
21568;DHT22;10944;42.590;12.630;2023-03-13T01:25:54;9.30;99.50
21568;DHT22;10944;42.590;12.630;2023-03-13T01:28:20;9.20;99.50
21568;DHT22;10944;42.590;12.630;2023-03-13T01:30:46;9.20;99.70
21568;DHT22;10944;42.590;12.630;2023-03-13T01:33:12;9.10;99.70
21568;DHT22;10944;42.590;12.630;2023-03-13T01:35:38;9.00;99.70
21568;DHT22;10944;42.590;12.630;2023-03-13T01:38:03;9.00;99.90
21568;DHT22;10944;42.590;12.630;2023-03-13T01:40:29;8.80;99.40
21568;DHT22;10944;42.590;12.630;2023-03-13T01:42:59;8.70;99.90
21568;DHT22;10944;42.590;12.630;2023-03-13T01:45:53;8.70;99.90
21568;DHT22;10944;42.590;12.630;2023-03-13T01:51:12;8.60;99.90
21568;DHT22;10944;42.590;12.630;2023-03-13T01:53:42;8.60;99.90
21568;DHT22;10944;42.590;12.630;2023-03-13T01:56:14;8.50;99.90
21568;DHT22;10944;42.590;12.630;2023-03-13T01:58:41;8.50;99.90
21568;DHT22;10944;42.590;12.630;2023-03-13T02:01:08;8.50;99.90
21568;DHT22;10944;42.590;12.630;2023-03-13T02:03:34;8.50;99.90
21568;DHT22;10944;42.590;12.630;2023-03-13T02:06:01;8.60;99.90
21568;DHT22;10944;42.590;12.630;2023-03-13T02:08:33;8.60;99.90
21568;DHT22;10944;42.590;12.630;2023-03-13T02:11:21;8.80;99.90
21568;DHT22;10944;42.590;12.630;2023-03-13T02:13:49;8.90;99.90
21568;DHT22;10944;42.590;12.630;2023-03-13T02:16:16;8.90;99.30
21568;DHT22;10944;42.590;12.630;2023-03-13T02:18:43;9.00;99.20
21568;DHT22;10944;42.590;12.630;2023-03-13T02:21:22;9.20;99.40
21568;DHT22;10944;42.590;12.630;2023-03-13T02:23:59;9.20;99.10
21568;DHT22;10944;42.590;12.630;2023-03-13T02:26:26;9.30;99.00
21568;DHT22;10944;42.590;12.630;2023-03-13T02:28:52;9.40;99.10
21568;DHT22;10944;42.590;12.630;2023-03-13T02:31:17;9.40;98.90
21568;DHT22;10944;42.590;12.630;2023-03-13T02:33:43;9.50;99.00
21568;DHT22;10944;42.590;12.630;2023-03-13T02:36:10;9.60;98.80
21568;DHT22;10944;42.590;12.630;2023-03-13T02:38:43;9.80;98.30
21568;DHT22;10944;42.590;12.630;2023-03-13T02:41:11;9.80;98.70
21568;DHT22;10944;42.590;12.630;2023-03-13T02:43:37;9.80;98.70
21568;DHT22;10944;42.590;12.630;2023-03-13T02:48:36;9.80;98.80
21568;DHT22;10944;42.590;12.630;2023-03-13T02:51:05;9.70;98.70
21568;DHT22;10944;42.590;12.630;2023-03-13T02:53:34;9.60;99.00
21568;DHT22;10944;42.590;12.630;2023-03-13T02:56:00;9.50;99.20
21568;DHT22;10944;42.590;12.630;2023-03-13T02:58:25;9.40;99.00
21568;DHT22;10944;42.590;12.630;2023-03-13T03:00:52;9.40;99.20
21568;DHT22;10944;42.590;12.630;2023-03-13T03:03:18;9.30;99.40
21568;DHT22;10944;42.590;12.630;2023-03-13T03:05:43;9.20;99.50
21568;DHT22;10944;42.590;12.630;2023-03-13T03:08:09;9.10;99.90
21568;DHT22;10944;42.590;12.630;2023-03-13T03:10:35;9.00;99.90
21568;DHT22;10944;42.590;12.630;2023-03-13T03:13:01;9.10;99.30
21568;DHT22;10944;42.590;12.630;2023-03-13T03:15:27;9.20;99.70
21568;DHT22;10944;42.590;12.630;2023-03-13T03:17:53;9.10;99.80
21568;DHT22;10944;42.590;12.630;2023-03-13T03:20:19;9.00;99.50
21568;DHT22;10944;42.590;12.630;2023-03-13T03:22:44;9.10;99.40
21568;DHT22;10944;42.590;12.630;2023-03-13T03:25:10;9.10;99.30
21568;DHT22;10944;42.590;12.630;2023-03-13T03:27:36;9.10;99.00
21568;DHT22;10944;42.590;12.630;2023-03-13T03:30:03;9.30;98.30
21568;DHT22;10944;42.590;12.630;2023-03-13T03:32:29;9.40;98.30
21568;DHT22;10944;42.590;12.630;2023-03-13T03:34:54;9.40;98.70
21568;DHT22;10944;42.590;12.630;2023-03-13T03:37:20;9.20;99.10
21568;DHT22;10944;42.590;12.630;2023-03-13T03:39:45;9.20;99.50
21568;DHT22;10944;42.590;12.630;2023-03-13T03:42:11;9.10;99.40
21568;DHT22;10944;42.590;12.630;2023-03-13T03:44:37;9.00;99.20
21568;DHT22;10944;42.590;12.630;2023-03-13T03:47:02;9.00;99.20
21568;DHT22;10944;42.590;12.630;2023-03-13T03:49:28;8.90;99.10
21568;DHT22;10944;42.590;12.630;2023-03-13T03:51:54;8.90;99.00
21568;DHT22;10944;42.590;12.630;2023-03-13T03:54:19;8.80;99.10
21568;DHT22;10944;42.590;12.630;2023-03-13T03:56:45;8.70;99.20
21568;DHT22;10944;42.590;12.630;2023-03-13T03:59:11;8.70;99.30
21568;DHT22;10944;42.590;12.630;2023-03-13T04:01:36;8.80;99.30
21568;DHT22;10944;42.590;12.630;2023-03-13T04:04:02;8.90;98.90
21568;DHT22;10944;42.590;12.630;2023-03-13T04:06:28;9.10;99.00
21568;DHT22;10944;42.590;12.630;2023-03-13T04:08:54;9.10;98.60
21568;DHT22;10944;42.590;12.630;2023-03-13T04:11:20;9.20;99.10
21568;DHT22;10944;42.590;12.630;2023-03-13T04:13:46;9.20;99.00
21568;DHT22;10944;42.590;12.630;2023-03-13T04:16:12;9.40;98.80
21568;DHT22;10944;42.590;12.630;2023-03-13T04:18:37;9.40;98.70
21568;DHT22;10944;42.590;12.630;2023-03-13T04:21:04;9.60;97.70
21568;DHT22;10944;42.590;12.630;2023-03-13T04:23:30;9.80;97.90
21568;DHT22;10944;42.590;12.630;2023-03-13T04:25:56;9.70;97.80
21568;DHT22;10944;42.590;12.630;2023-03-13T04:28:21;9.80;97.50
21568;DHT22;10944;42.590;12.630;2023-03-13T04:30:47;9.70;97.50
21568;DHT22;10944;42.590;12.630;2023-03-13T04:33:13;9.50;97.60
21568;DHT22;10944;42.590;12.630;2023-03-13T04:35:38;9.40;98.10
21568;DHT22;10944;42.590;12.630;2023-03-13T04:38:04;9.20;98.00
21568;DHT22;10944;42.590;12.630;2023-03-13T04:40:30;9.10;98.30
21568;DHT22;10944;42.590;12.630;2023-03-13T04:42:55;8.90;98.70
21568;DHT22;10944;42.590;12.630;2023-03-13T04:45:21;8.80;99.30
21568;DHT22;10944;42.590;12.630;2023-03-13T04:47:47;8.70;99.20
21568;DHT22;10944;42.590;12.630;2023-03-13T04:50:12;8.50;99.50
21568;DHT22;10944;42.590;12.630;2023-03-13T04:52:38;8.40;99.50
21568;DHT22;10944;42.590;12.630;2023-03-13T04:55:04;8.40;99.40
21568;DHT22;10944;42.590;12.630;2023-03-13T04:57:30;8.30;99.60
21568;DHT22;10944;42.590;12.630;2023-03-13T04:59:55;8.30;99.90
21568;DHT22;10944;42.590;12.630;2023-03-13T05:02:21;8.20;99.90
21568;DHT22;10944;42.590;12.630;2023-03-13T05:04:47;8.30;99.90
21568;DHT22;10944;42.590;12.630;2023-03-13T05:07:13;8.40;99.90
21568;DHT22;10944;42.590;12.630;2023-03-13T05:09:38;8.50;99.90
21568;DHT22;10944;42.590;12.630;2023-03-13T05:12:04;8.80;99.00
21568;DHT22;10944;42.590;12.630;2023-03-13T05:14:30;9.00;99.10
21568;DHT22;10944;42.590;12.630;2023-03-13T05:16:56;9.30;98.20
21568;DHT22;10944;42.590;12.630;2023-03-13T05:19:21;9.40;97.90
21568;DHT22;10944;42.590;12.630;2023-03-13T05:21:47;9.70;97.80
21568;DHT22;10944;42.590;12.630;2023-03-13T05:24:12;9.70;97.60
21568;DHT22;10944;42.590;12.630;2023-03-13T05:26:38;9.80;97.00
21568;DHT22;10944;42.590;12.630;2023-03-13T05:29:04;9.90;97.40
21568;DHT22;10944;42.590;12.630;2023-03-13T05:31:29;9.90;97.20
21568;DHT22;10944;42.590;12.630;2023-03-13T05:33:55;9.90;97.60
21568;DHT22;10944;42.590;12.630;2023-03-13T05:36:21;9.80;97.70
21568;DHT22;10944;42.590;12.630;2023-03-13T05:38:47;9.60;98.10
21568;DHT22;10944;42.590;12.630;2023-03-13T05:41:12;9.50;98.30
21568;DHT22;10944;42.590;12.630;2023-03-13T05:43:38;9.40;98.50
21568;DHT22;10944;42.590;12.630;2023-03-13T05:46:04;9.40;98.50
21568;DHT22;10944;42.590;12.630;2023-03-13T05:48:29;9.40;98.50
21568;DHT22;10944;42.590;12.630;2023-03-13T05:50:55;9.50;98.10
21568;DHT22;10944;42.590;12.630;2023-03-13T05:53:20;9.50;98.20
21568;DHT22;10944;42.590;12.630;2023-03-13T05:55:46;9.60;97.80
21568;DHT22;10944;42.590;12.630;2023-03-13T05:58:12;9.60;98.20
21568;DHT22;10944;42.590;12.630;2023-03-13T06:00:37;9.60;98.30
21568;DHT22;10944;42.590;12.630;2023-03-13T06:03:03;9.50;98.60
21568;DHT22;10944;42.590;12.630;2023-03-13T06:05:29;9.30;98.80
21568;DHT22;10944;42.590;12.630;2023-03-13T06:07:54;9.30;99.30
21568;DHT22;10944;42.590;12.630;2023-03-13T06:10:20;9.30;99.30
21568;DHT22;10944;42.590;12.630;2023-03-13T06:12:55;9.30;98.80
21568;DHT22;10944;42.590;12.630;2023-03-13T06:15:22;9.40;98.50
21568;DHT22;10944;42.590;12.630;2023-03-13T06:17:48;9.50;98.80
21568;DHT22;10944;42.590;12.630;2023-03-13T06:20:14;9.60;99.10
21568;DHT22;10944;42.590;12.630;2023-03-13T06:22:40;9.80;98.90
21568;DHT22;10944;42.590;12.630;2023-03-13T06:25:06;9.80;99.00
21568;DHT22;10944;42.590;12.630;2023-03-13T06:27:32;9.80;98.40
21568;DHT22;10944;42.590;12.630;2023-03-13T06:29:58;9.80;98.80
21568;DHT22;10944;42.590;12.630;2023-03-13T06:32:23;9.90;99.00
21568;DHT22;10944;42.590;12.630;2023-03-13T06:34:49;9.90;97.70
21568;DHT22;10944;42.590;12.630;2023-03-13T06:37:15;10.00;96.20
21568;DHT22;10944;42.590;12.630;2023-03-13T06:39:41;10.10;96.70
21568;DHT22;10944;42.590;12.630;2023-03-13T06:42:06;10.10;96.40
21568;DHT22;10944;42.590;12.630;2023-03-13T06:44:32;10.20;96.50
21568;DHT22;10944;42.590;12.630;2023-03-13T06:46:58;10.40;96.20
21568;DHT22;10944;42.590;12.630;2023-03-13T06:49:24;10.60;96.20
21568;DHT22;10944;42.590;12.630;2023-03-13T06:51:50;10.80;95.00
21568;DHT22;10944;42.590;12.630;2023-03-13T06:54:15;11.00;94.90
21568;DHT22;10944;42.590;12.630;2023-03-13T06:56:41;11.10;94.70
21568;DHT22;10944;42.590;12.630;2023-03-13T06:59:07;11.30;94.90
21568;DHT22;10944;42.590;12.630;2023-03-13T07:01:32;11.40;95.40
21568;DHT22;10944;42.590;12.630;2023-03-13T07:03:58;11.30;95.80
21568;DHT22;10944;42.590;12.630;2023-03-13T07:06:24;11.40;96.00
21568;DHT22;10944;42.590;12.630;2023-03-13T07:08:51;11.40;95.40
21568;DHT22;10944;42.590;12.630;2023-03-13T07:11:17;11.60;94.90
21568;DHT22;10944;42.590;12.630;2023-03-13T07:13:43;11.70;94.70
21568;DHT22;10944;42.590;12.630;2023-03-13T07:16:11;11.80;94.90
21568;DHT22;10944;42.590;12.630;2023-03-13T07:18:37;11.90;94.40
21568;DHT22;10944;42.590;12.630;2023-03-13T07:21:04;12.00;94.30
21568;DHT22;10944;42.590;12.630;2023-03-13T07:23:30;12.10;94.20
21568;DHT22;10944;42.590;12.630;2023-03-13T07:25:59;12.20;94.00
21568;DHT22;10944;42.590;12.630;2023-03-13T07:28:26;12.20;94.10
21568;DHT22;10944;42.590;12.630;2023-03-13T07:30:52;12.30;94.30
21568;DHT22;10944;42.590;12.630;2023-03-13T07:33:18;12.30;94.00
21568;DHT22;10944;42.590;12.630;2023-03-13T07:35:51;12.50;94.00
21568;DHT22;10944;42.590;12.630;2023-03-13T07:38:18;12.60;94.00
21568;DHT22;10944;42.590;12.630;2023-03-13T07:40:51;12.60;94.80
21568;DHT22;10944;42.590;12.630;2023-03-13T07:43:18;12.60;94.10
21568;DHT22;10944;42.590;12.630;2023-03-13T07:46:00;12.70;93.90
21568;DHT22;10944;42.590;12.630;2023-03-13T07:48:32;12.80;93.60
21568;DHT22;10944;42.590;12.630;2023-03-13T07:50:58;12.90;93.60
21568;DHT22;10944;42.590;12.630;2023-03-13T07:53:25;13.00;93.70
21568;DHT22;10944;42.590;12.630;2023-03-13T07:55:52;13.10;93.70
21568;DHT22;10944;42.590;12.630;2023-03-13T07:58:18;13.20;94.10
21568;DHT22;10944;42.590;12.630;2023-03-13T08:00:44;13.30;93.40
21568;DHT22;10944;42.590;12.630;2023-03-13T08:03:10;13.40;94.10
21568;DHT22;10944;42.590;12.630;2023-03-13T08:05:36;13.50;93.80
21568;DHT22;10944;42.590;12.630;2023-03-13T08:08:01;13.50;93.50
21568;DHT22;10944;42.590;12.630;2023-03-13T08:10:27;13.50;93.50
21568;DHT22;10944;42.590;12.630;2023-03-13T08:12:53;13.60;93.10
21568;DHT22;10944;42.590;12.630;2023-03-13T08:15:18;13.80;93.50
21568;DHT22;10944;42.590;12.630;2023-03-13T08:17:50;13.90;93.10
21568;DHT22;10944;42.590;12.630;2023-03-13T08:20:16;14.00;93.50
21568;DHT22;10944;42.590;12.630;2023-03-13T08:22:46;14.10;93.00
21568;DHT22;10944;42.590;12.630;2023-03-13T08:25:13;14.20;92.80
21568;DHT22;10944;42.590;12.630;2023-03-13T08:27:39;14.30;93.00
21568;DHT22;10944;42.590;12.630;2023-03-13T08:30:06;14.40;92.40
21568;DHT22;10944;42.590;12.630;2023-03-13T08:32:32;14.40;93.10
21568;DHT22;10944;42.590;12.630;2023-03-13T08:34:58;14.50;93.10
21568;DHT22;10944;42.590;12.630;2023-03-13T08:37:24;14.60;92.50
21568;DHT22;10944;42.590;12.630;2023-03-13T08:39:50;14.70;92.50
21568;DHT22;10944;42.590;12.630;2023-03-13T08:42:15;14.70;91.40
21568;DHT22;10944;42.590;12.630;2023-03-13T08:44:41;14.70;91.90
21568;DHT22;10944;42.590;12.630;2023-03-13T08:47:07;14.80;91.80
21568;DHT22;10944;42.590;12.630;2023-03-13T08:49:33;14.90;91.70
21568;DHT22;10944;42.590;12.630;2023-03-13T08:51:59;14.80;91.20
21568;DHT22;10944;42.590;12.630;2023-03-13T08:54:25;15.00;91.60
21568;DHT22;10944;42.590;12.630;2023-03-13T08:56:51;15.20;92.00
21568;DHT22;10944;42.590;12.630;2023-03-13T08:59:16;15.40;91.40
21568;DHT22;10944;42.590;12.630;2023-03-13T09:01:42;15.40;91.30
21568;DHT22;10944;42.590;12.630;2023-03-13T09:04:08;15.40;91.70
21568;DHT22;10944;42.590;12.630;2023-03-13T09:06:35;15.50;91.50
21568;DHT22;10944;42.590;12.630;2023-03-13T09:09:02;15.60;91.60
21568;DHT22;10944;42.590;12.630;2023-03-13T09:11:28;15.60;91.60
21568;DHT22;10944;42.590;12.630;2023-03-13T09:13:55;15.60;91.70
21568;DHT22;10944;42.590;12.630;2023-03-13T09:16:25;15.60;91.80
21568;DHT22;10944;42.590;12.630;2023-03-13T09:18:51;15.70;92.20
21568;DHT22;10944;42.590;12.630;2023-03-13T09:21:20;15.80;93.00
21568;DHT22;10944;42.590;12.630;2023-03-13T09:23:47;16.00;92.70
21568;DHT22;10944;42.590;12.630;2023-03-13T09:26:14;16.00;93.00
21568;DHT22;10944;42.590;12.630;2023-03-13T09:28:40;16.10;93.10
21568;DHT22;10944;42.590;12.630;2023-03-13T09:31:13;16.10;92.20
21568;DHT22;10944;42.590;12.630;2023-03-13T09:33:41;16.20;92.30
21568;DHT22;10944;42.590;12.630;2023-03-13T09:36:08;16.10;92.70
21568;DHT22;10944;42.590;12.630;2023-03-13T09:38:34;16.10;93.50
21568;DHT22;10944;42.590;12.630;2023-03-13T09:43:46;16.20;92.20
21568;DHT22;10944;42.590;12.630;2023-03-13T09:49:41;16.30;93.30
21568;DHT22;10944;42.590;12.630;2023-03-13T09:57:39;16.20;92.30
21568;DHT22;10944;42.590;12.630;2023-03-13T10:00:16;16.20;93.60
21568;DHT22;10944;42.590;12.630;2023-03-13T10:02:46;16.40;93.30
21568;DHT22;10944;42.590;12.630;2023-03-13T10:05:21;16.30;92.70
21568;DHT22;10944;42.590;12.630;2023-03-13T10:07:49;16.30;92.70
21568;DHT22;10944;42.590;12.630;2023-03-13T10:10:18;16.30;93.30
21568;DHT22;10944;42.590;12.630;2023-03-13T10:12:47;16.40;93.90
21568;DHT22;10944;42.590;12.630;2023-03-13T10:15:31;16.50;93.40
21568;DHT22;10944;42.590;12.630;2023-03-13T10:17:59;16.70;94.00
21568;DHT22;10944;42.590;12.630;2023-03-13T10:20:34;16.70;93.80
21568;DHT22;10944;42.590;12.630;2023-03-13T10:23:05;16.70;93.20
21568;DHT22;10944;42.590;12.630;2023-03-13T10:25:37;16.70;93.20
21568;DHT22;10944;42.590;12.630;2023-03-13T10:28:14;16.70;93.10
21568;DHT22;10944;42.590;12.630;2023-03-13T10:30:57;16.70;92.70
21568;DHT22;10944;42.590;12.630;2023-03-13T10:33:26;16.70;93.10
21568;DHT22;10944;42.590;12.630;2023-03-13T10:36:07;16.80;93.50
21568;DHT22;10944;42.590;12.630;2023-03-13T10:38:44;16.90;92.90
21568;DHT22;10944;42.590;12.630;2023-03-13T10:43:53;16.80;92.00
21568;DHT22;10944;42.590;12.630;2023-03-13T10:46:29;16.90;93.30
21568;DHT22;10944;42.590;12.630;2023-03-13T10:48:56;17.00;92.90
21568;DHT22;10944;42.590;12.630;2023-03-13T10:51:23;17.00;92.90
21568;DHT22;10944;42.590;12.630;2023-03-13T10:53:49;17.10;93.10
21568;DHT22;10944;42.590;12.630;2023-03-13T10:56:24;17.00;92.70
21568;DHT22;10944;42.590;12.630;2023-03-13T10:58:52;17.10;93.70
21568;DHT22;10944;42.590;12.630;2023-03-13T11:01:41;17.10;92.90
21568;DHT22;10944;42.590;12.630;2023-03-13T11:06:51;17.00;92.20
21568;DHT22;10944;42.590;12.630;2023-03-13T11:09:22;17.10;93.40
21568;DHT22;10944;42.590;12.630;2023-03-13T11:11:54;17.10;92.00
21568;DHT22;10944;42.590;12.630;2023-03-13T11:14:22;17.10;92.10
21568;DHT22;10944;42.590;12.630;2023-03-13T11:22:11;17.30;93.80
21568;DHT22;10944;42.590;12.630;2023-03-13T11:25:34;17.40;93.60
21568;DHT22;10944;42.590;12.630;2023-03-13T11:38:36;17.70;92.90
21568;DHT22;10944;42.590;12.630;2023-03-13T11:55:15;18.00;93.60
21568;DHT22;10944;42.590;12.630;2023-03-13T11:58:08;18.20;91.90
21568;DHT22;10944;42.590;12.630;2023-03-13T12:00:40;18.20;92.90
21568;DHT22;10944;42.590;12.630;2023-03-13T12:03:21;18.20;92.00
21568;DHT22;10944;42.590;12.630;2023-03-13T12:05:57;18.20;91.60
21568;DHT22;10944;42.590;12.630;2023-03-13T12:08:43;18.20;91.40
21568;DHT22;10944;42.590;12.630;2023-03-13T12:11:21;18.10;91.30
21568;DHT22;10944;42.590;12.630;2023-03-13T12:14:14;18.10;91.70
21568;DHT22;10944;42.590;12.630;2023-03-13T12:16:48;18.10;91.70
21568;DHT22;10944;42.590;12.630;2023-03-13T12:19:22;18.10;92.10
21568;DHT22;10944;42.590;12.630;2023-03-13T12:21:52;18.10;91.50
21568;DHT22;10944;42.590;12.630;2023-03-13T12:24:31;18.20;91.50
21568;DHT22;10944;42.590;12.630;2023-03-13T12:27:12;18.40;91.90
21568;DHT22;10944;42.590;12.630;2023-03-13T12:29:53;18.50;91.60
21568;DHT22;10944;42.590;12.630;2023-03-13T12:35:20;18.80;91.00
21568;DHT22;10944;42.590;12.630;2023-03-13T12:43:19;18.90;89.40
21568;DHT22;10944;42.590;12.630;2023-03-13T12:59:38;19.10;87.60
21568;DHT22;10944;42.590;12.630;2023-03-13T13:02:20;19.10;90.20
21568;DHT22;10944;42.590;12.630;2023-03-13T13:04:49;19.10;90.00
21568;DHT22;10944;42.590;12.630;2023-03-13T13:07:20;19.10;88.80
21568;DHT22;10944;42.590;12.630;2023-03-13T13:12:25;19.20;87.00
21568;DHT22;10944;42.590;12.630;2023-03-13T13:17:21;19.10;87.20
21568;DHT22;10944;42.590;12.630;2023-03-13T13:19:49;19.10;90.90
21568;DHT22;10944;42.590;12.630;2023-03-13T13:37:41;19.50;87.60
21568;DHT22;10944;42.590;12.630;2023-03-13T13:40:27;19.50;88.80
21568;DHT22;10944;42.590;12.630;2023-03-13T13:43:01;19.50;90.90
21568;DHT22;10944;42.590;12.630;2023-03-13T13:45:31;19.60;87.70
21568;DHT22;10944;42.590;12.630;2023-03-13T13:48:22;19.50;89.00
21568;DHT22;10944;42.590;12.630;2023-03-13T14:01:39;19.50;89.40
21568;DHT22;10944;42.590;12.630;2023-03-13T14:04:28;19.60;87.70
21568;DHT22;10944;42.590;12.630;2023-03-13T14:07:00;19.40;89.80
21568;DHT22;10944;42.590;12.630;2023-03-13T14:12:00;19.30;90.00
21568;DHT22;10944;42.590;12.630;2023-03-13T14:14:26;19.30;89.40
21568;DHT22;10944;42.590;12.630;2023-03-13T14:16:54;19.40;89.50
21568;DHT22;10944;42.590;12.630;2023-03-13T14:21:59;19.40;90.30
21568;DHT22;10944;42.590;12.630;2023-03-13T14:24:25;19.40;90.60
21568;DHT22;10944;42.590;12.630;2023-03-13T14:26:51;19.40;88.80
21568;DHT22;10944;42.590;12.630;2023-03-13T14:29:18;19.40;89.70
21568;DHT22;10944;42.590;12.630;2023-03-13T14:31:54;19.40;89.00
21568;DHT22;10944;42.590;12.630;2023-03-13T14:34:20;19.20;90.80
21568;DHT22;10944;42.590;12.630;2023-03-13T14:36:49;19.20;90.10
21568;DHT22;10944;42.590;12.630;2023-03-13T14:39:21;19.10;90.30
21568;DHT22;10944;42.590;12.630;2023-03-13T14:42:13;19.00;89.70
21568;DHT22;10944;42.590;12.630;2023-03-13T14:44:40;18.90;91.00
21568;DHT22;10944;42.590;12.630;2023-03-13T14:47:24;19.00;90.30
21568;DHT22;10944;42.590;12.630;2023-03-13T14:50:02;19.00;90.10
21568;DHT22;10944;42.590;12.630;2023-03-13T14:52:30;19.00;89.70
21568;DHT22;10944;42.590;12.630;2023-03-13T14:57:26;18.90;88.80
21568;DHT22;10944;42.590;12.630;2023-03-13T14:59:53;19.00;91.50
21568;DHT22;10944;42.590;12.630;2023-03-13T15:02:27;19.20;89.80
21568;DHT22;10944;42.590;12.630;2023-03-13T15:05:03;19.50;90.00
21568;DHT22;10944;42.590;12.630;2023-03-13T15:07:55;19.60;89.00
21568;DHT22;10944;42.590;12.630;2023-03-13T15:10:36;19.60;90.10
21568;DHT22;10944;42.590;12.630;2023-03-13T15:15:46;19.50;90.00
21568;DHT22;10944;42.590;12.630;2023-03-13T15:18:23;19.50;90.10
21568;DHT22;10944;42.590;12.630;2023-03-13T15:20:51;19.50;88.80
21568;DHT22;10944;42.590;12.630;2023-03-13T15:23:18;19.60;88.10
21568;DHT22;10944;42.590;12.630;2023-03-13T15:25:44;19.50;88.90
21568;DHT22;10944;42.590;12.630;2023-03-13T15:28:22;19.50;88.10
21568;DHT22;10944;42.590;12.630;2023-03-13T15:30:49;19.40;90.00
21568;DHT22;10944;42.590;12.630;2023-03-13T15:33:18;19.40;90.50
21568;DHT22;10944;42.590;12.630;2023-03-13T15:35:44;19.40;89.30
21568;DHT22;10944;42.590;12.630;2023-03-13T15:38:21;19.40;90.40
21568;DHT22;10944;42.590;12.630;2023-03-13T15:40:48;19.50;90.80
21568;DHT22;10944;42.590;12.630;2023-03-13T15:43:14;19.50;90.80
21568;DHT22;10944;42.590;12.630;2023-03-13T15:45:42;19.40;91.70
21568;DHT22;10944;42.590;12.630;2023-03-13T15:51:01;19.10;91.40
21568;DHT22;10944;42.590;12.630;2023-03-13T15:53:31;18.90;91.30
21568;DHT22;10944;42.590;12.630;2023-03-13T15:55:58;18.80;91.20
21568;DHT22;10944;42.590;12.630;2023-03-13T15:58:26;18.80;91.10
21568;DHT22;10944;42.590;12.630;2023-03-13T16:00:53;18.60;91.40
21568;DHT22;10944;42.590;12.630;2023-03-13T16:03:24;18.60;91.80
21568;DHT22;10944;42.590;12.630;2023-03-13T16:05:50;18.50;91.90
21568;DHT22;10944;42.590;12.630;2023-03-13T16:08:18;18.40;90.00
21568;DHT22;10944;42.590;12.630;2023-03-13T16:10:45;18.30;89.00
21568;DHT22;10944;42.590;12.630;2023-03-13T16:13:10;18.20;88.60
21568;DHT22;10944;42.590;12.630;2023-03-13T16:15:37;18.10;88.90
21568;DHT22;10944;42.590;12.630;2023-03-13T16:18:03;18.00;89.40
21568;DHT22;10944;42.590;12.630;2023-03-13T16:20:30;18.00;90.00
21568;DHT22;10944;42.590;12.630;2023-03-13T16:22:56;17.80;90.70
21568;DHT22;10944;42.590;12.630;2023-03-13T16:25:23;17.70;91.20
21568;DHT22;10944;42.590;12.630;2023-03-13T16:27:50;17.60;91.20
21568;DHT22;10944;42.590;12.630;2023-03-13T16:30:23;17.50;92.00
21568;DHT22;10944;42.590;12.630;2023-03-13T16:32:50;17.30;92.40
21568;DHT22;10944;42.590;12.630;2023-03-13T16:35:16;17.20;92.40
21568;DHT22;10944;42.590;12.630;2023-03-13T16:37:42;17.10;93.10
21568;DHT22;10944;42.590;12.630;2023-03-13T16:40:17;17.00;93.40
21568;DHT22;10944;42.590;12.630;2023-03-13T16:42:43;16.90;93.60
21568;DHT22;10944;42.590;12.630;2023-03-13T16:45:09;16.80;93.50
21568;DHT22;10944;42.590;12.630;2023-03-13T16:47:35;16.70;94.00
21568;DHT22;10944;42.590;12.630;2023-03-13T16:50:02;16.50;94.60
21568;DHT22;10944;42.590;12.630;2023-03-13T16:52:36;16.40;94.20
21568;DHT22;10944;42.590;12.630;2023-03-13T16:55:02;16.30;94.30
21568;DHT22;10944;42.590;12.630;2023-03-13T16:57:28;16.20;94.10
21568;DHT22;10944;42.590;12.630;2023-03-13T16:59:54;16.10;94.40
21568;DHT22;10944;42.590;12.630;2023-03-13T17:02:19;16.00;94.70
21568;DHT22;10944;42.590;12.630;2023-03-13T17:04:46;15.80;94.20
21568;DHT22;10944;42.590;12.630;2023-03-13T17:07:23;15.80;94.00
21568;DHT22;10944;42.590;12.630;2023-03-13T17:09:50;15.70;93.50
21568;DHT22;10944;42.590;12.630;2023-03-13T17:12:16;15.60;94.10
21568;DHT22;10944;42.590;12.630;2023-03-13T17:14:43;15.50;94.00
21568;DHT22;10944;42.590;12.630;2023-03-13T17:17:15;15.40;94.90
21568;DHT22;10944;42.590;12.630;2023-03-13T17:19:44;15.30;94.60
21568;DHT22;10944;42.590;12.630;2023-03-13T17:22:12;15.10;95.40
21568;DHT22;10944;42.590;12.630;2023-03-13T17:24:38;15.00;94.80
21568;DHT22;10944;42.590;12.630;2023-03-13T17:27:05;14.90;96.30
21568;DHT22;10944;42.590;12.630;2023-03-13T17:29:34;14.70;96.40
21568;DHT22;10944;42.590;12.630;2023-03-13T17:32:00;14.60;95.90
21568;DHT22;10944;42.590;12.630;2023-03-13T17:34:27;14.50;95.70